Time;durP1;ratioP1;P1;durP2;ratioP2;P2;SDS_P1;SDS_P2;PMS_P1;PMS_P2;Temp;Humidity;BMP_temperature;BMP_pressure;BME280_temperature;BME280_humidity;BME280_pressure;Samples;Min_cycle;Max_cycle;Signal;HPM_P1;HPM_P2
2022/02/20 00:00:27;;;;;;;23.67;5.20;;;;;;;;;;5053677;28;20237;-82
2022/02/20 00:02:56;;;;;;;18.97;3.97;;;;;;;;;;5052462;28;20234;-82
2022/02/20 00:05:24;;;;;;;23.27;4.50;;;;;;;;;;5053493;28;20237;-82
2022/02/20 00:07:52;;;;;;;20.43;4.60;;;;;;;;;;5053607;28;20235;-82
2022/02/20 00:10:19;;;;;;;26.73;4.90;;;;;;;;;;5052733;28;20580;-83
2022/02/20 00:12:46;;;;;;;25.93;4.80;;;;;;;;;;5052565;28;20196;-82
2022/02/20 00:15:15;;;;;;;19.90;4.30;;;;;;;;;;5053169;28;20693;-82
2022/02/20 00:17:43;;;;;;;19.93;4.53;;;;;;;;;;5053035;28;20690;-83
2022/02/20 00:20:14;;;;;;;22.00;4.47;;;;;;;;;;5069321;28;20210;-83
2022/02/20 00:22:41;;;;;;;22.77;4.77;;;;;;;;;;5052317;28;20689;-82
2022/02/20 00:25:10;;;;;;;25.90;4.47;;;;;;;;;;5052478;28;20247;-83
2022/02/20 00:27:37;;;;;;;22.77;4.30;;;;;;;;;;5052632;28;20226;-83
2022/02/20 00:30:04;;;;;;;24.87;4.60;;;;;;;;;;5053057;28;20232;-83
2022/02/20 00:32:32;;;;;;;20.73;4.60;;;;;;;;;;5052946;28;20273;-82
2022/02/20 00:34:59;;;;;;;25.40;5.10;;;;;;;;;;5052450;28;20280;-83
2022/02/20 00:37:27;;;;;;;24.20;5.50;;;;;;;;;;5052742;28;20233;-83
2022/02/20 00:39:55;;;;;;;24.17;4.07;;;;;;;;;;5052017;28;20224;-83
2022/02/20 00:42:22;;;;;;;22.80;3.93;;;;;;;;;;5052512;28;20246;-82
2022/02/20 00:44:49;;;;;;;27.13;4.30;;;;;;;;;;5052207;28;20244;-82
2022/02/20 00:47:16;;;;;;;25.13;3.87;;;;;;;;;;5052446;28;20288;-83
2022/02/20 00:49:43;;;;;;;23.30;4.07;;;;;;;;;;5052559;28;20261;-83
2022/02/20 00:52:10;;;;;;;19.07;3.87;;;;;;;;;;5053263;28;20290;-83
2022/02/20 00:54:39;;;;;;;20.57;3.60;;;;;;;;;;5052790;28;20288;-83
2022/02/20 00:57:06;;;;;;;25.30;4.40;;;;;;;;;;5052020;28;20286;-83
2022/02/20 00:59:34;;;;;;;26.40;4.30;;;;;;;;;;5051325;28;20243;-83
2022/02/20 01:02:01;;;;;;;27.60;5.20;;;;;;;;;;5052636;28;20634;-83
2022/02/20 01:04:28;;;;;;;24.37;4.73;;;;;;;;;;5052723;28;20269;-83
2022/02/20 01:06:57;;;;;;;26.63;4.00;;;;;;;;;;5049474;28;20242;-83
2022/02/20 01:09:27;;;;;;;20.33;4.40;;;;;;;;;;5051357;28;20196;-83
2022/02/20 01:11:56;;;;;;;29.63;4.70;;;;;;;;;;5052435;28;20294;-83
2022/02/20 01:14:23;;;;;;;21.77;4.63;;;;;;;;;;5047370;28;20246;-83
2022/02/20 01:16:50;;;;;;;22.50;4.27;;;;;;;;;;5052683;28;20232;-83
2022/02/20 01:19:18;;;;;;;20.60;4.23;;;;;;;;;;5052409;28;20235;-83
2022/02/20 01:21:45;;;;;;;26.10;4.43;;;;;;;;;;5045085;28;20758;-83
2022/02/20 01:24:14;;;;;;;22.80;3.87;;;;;;;;;;5053167;28;20762;-83
2022/02/20 01:26:42;;;;;;;23.80;3.97;;;;;;;;;;5044135;28;20200;-83
2022/02/20 01:29:11;;;;;;;22.47;3.90;;;;;;;;;;5051518;28;20281;-83
2022/02/20 01:31:38;;;;;;;25.17;5.93;;;;;;;;;;5050689;28;20213;-82
2022/02/20 01:34:05;;;;;;;24.40;4.33;;;;;;;;;;5051326;28;20253;-83
2022/02/20 01:36:33;;;;;;;30.13;4.97;;;;;;;;;;5049102;28;20240;-82
2022/02/20 01:39:00;;;;;;;23.43;4.50;;;;;;;;;;5050898;28;20228;-83
2022/02/20 01:41:27;;;;;;;19.90;4.30;;;;;;;;;;5051413;28;20195;-83
2022/02/20 01:43:55;;;;;;;29.13;4.37;;;;;;;;;;5051459;28;20220;-83
2022/02/20 01:46:23;;;;;;;25.50;4.20;;;;;;;;;;5051138;28;20319;-83
2022/02/20 01:48:50;;;;;;;21.97;3.47;;;;;;;;;;5051296;28;20219;-82
2022/02/20 01:51:18;;;;;;;21.07;3.63;;;;;;;;;;5050796;28;20219;-82
2022/02/20 01:53:45;;;;;;;18.00;3.87;;;;;;;;;;5050897;28;20635;-83
2022/02/20 01:56:13;;;;;;;22.47;3.50;;;;;;;;;;5052293;28;20250;-83
2022/02/20 01:58:42;;;;;;;20.30;3.90;;;;;;;;;;5050877;28;20200;-82
2022/02/20 02:01:09;;;;;;;24.23;4.30;;;;;;;;;;5051287;28;20223;-82
2022/02/20 02:03:38;;;;;;;23.10;3.83;;;;;;;;;;5051132;28;20204;-82
2022/02/20 02:06:05;;;;;;;22.97;3.97;;;;;;;;;;5050478;28;20220;-82
2022/02/20 02:08:35;;;;;;;19.83;3.90;;;;;;;;;;5050794;28;20230;-82
2022/02/20 02:11:02;;;;;;;26.10;4.30;;;;;;;;;;5049812;28;20272;-82
2022/02/20 02:13:29;;;;;;;28.47;3.87;;;;;;;;;;5048972;28;20229;-83
2022/02/20 02:15:57;;;;;;;28.43;4.17;;;;;;;;;;5050671;28;20223;-82
2022/02/20 02:18:24;;;;;;;20.83;3.70;;;;;;;;;;5047610;28;20242;-83
2022/02/20 02:20:52;;;;;;;21.37;3.77;;;;;;;;;;5050428;28;20722;-82
2022/02/20 02:23:21;;;;;;;26.47;5.03;;;;;;;;;;5051091;28;20238;-82
2022/02/20 02:25:49;;;;;;;19.33;3.90;;;;;;;;;;5049929;28;20299;-82
2022/02/20 02:28:17;;;;;;;18.87;3.30;;;;;;;;;;5051006;28;20207;-82
2022/02/20 02:30:44;;;;;;;24.13;3.83;;;;;;;;;;5050914;28;20197;-83
2022/02/20 02:33:11;;;;;;;18.47;3.83;;;;;;;;;;5049125;28;20280;-83
2022/02/20 02:35:39;;;;;;;20.40;3.60;;;;;;;;;;5050765;28;20233;-82
2022/02/20 02:38:06;;;;;;;22.50;3.97;;;;;;;;;;5048863;28;20265;-83
2022/02/20 02:40:35;;;;;;;19.50;3.47;;;;;;;;;;5046434;28;20566;-83
2022/02/20 02:43:02;;;;;;;27.00;3.53;;;;;;;;;;5049700;28;20254;-82
2022/02/20 02:45:29;;;;;;;18.93;3.67;;;;;;;;;;5050031;28;20734;-83
2022/02/20 02:47:56;;;;;;;19.03;3.40;;;;;;;;;;5050280;28;20198;-83
2022/02/20 02:50:23;;;;;;;17.53;3.70;;;;;;;;;;5050058;28;20625;-82
2022/02/20 02:52:51;;;;;;;24.73;3.90;;;;;;;;;;5050506;28;20233;-82
2022/02/20 02:55:18;;;;;;;22.53;4.27;;;;;;;;;;5050271;28;20271;-82
2022/02/20 02:57:46;;;;;;;23.77;3.80;;;;;;;;;;5049936;28;20234;-82
2022/02/20 03:00:14;;;;;;;25.93;4.37;;;;;;;;;;5051081;28;20235;-83
2022/02/20 03:02:43;;;;;;;19.97;3.47;;;;;;;;;;5051098;28;20225;-82
2022/02/20 03:05:10;;;;;;;21.47;4.20;;;;;;;;;;5049409;28;20303;-83
2022/02/20 03:07:37;;;;;;;29.73;5.53;;;;;;;;;;5050239;28;20291;-83
2022/02/20 03:10:05;;;;;;;23.17;5.10;;;;;;;;;;5050556;28;20249;-82
2022/02/20 03:12:32;;;;;;;27.20;4.90;;;;;;;;;;5050394;28;20228;-83
2022/02/20 03:15:01;;;;;;;20.43;4.53;;;;;;;;;;5050396;28;20223;-83
2022/02/20 03:17:28;;;;;;;27.83;4.20;;;;;;;;;;5049705;28;20257;-82
2022/02/20 03:19:55;;;;;;;22.50;3.83;;;;;;;;;;5050400;28;20865;-83
2022/02/20 03:22:22;;;;;;;34.50;4.63;;;;;;;;;;5052966;28;20204;-83
2022/02/20 03:24:49;;;;;;;30.10;4.23;;;;;;;;;;5054308;28;20282;-83
2022/02/20 03:27:17;;;;;;;24.07;3.77;;;;;;;;;;5054193;28;20197;-83
2022/02/20 03:29:44;;;;;;;19.33;3.27;;;;;;;;;;5068922;28;20736;-82
2022/02/20 03:32:12;;;;;;;31.17;5.43;;;;;;;;;;5054198;28;20286;-83
2022/02/20 03:34:40;;;;;;;25.73;4.90;;;;;;;;;;5056095;28;20278;-83
2022/02/20 03:37:07;;;;;;;30.67;6.47;;;;;;;;;;5053885;28;20651;-83
2022/02/20 03:39:34;;;;;;;23.77;5.50;;;;;;;;;;5054038;28;20291;-82
2022/02/20 03:42:02;;;;;;;28.37;5.93;;;;;;;;;;5052905;28;20246;-81
2022/02/20 03:44:30;;;;;;;31.43;4.73;;;;;;;;;;5053748;28;20200;-82
2022/02/20 03:46:57;;;;;;;26.10;4.90;;;;;;;;;;5053475;28;20314;-81
2022/02/20 03:49:26;;;;;;;25.63;4.37;;;;;;;;;;5053234;28;20730;-82
2022/02/20 03:51:53;;;;;;;19.73;4.00;;;;;;;;;;5053274;28;20641;-82
2022/02/20 03:54:20;;;;;;;26.93;4.77;;;;;;;;;;5053514;28;20221;-82
2022/02/20 03:56:48;;;;;;;25.03;4.00;;;;;;;;;;5053223;28;20679;-82
2022/02/20 03:59:15;;;;;;;24.60;4.17;;;;;;;;;;5052086;28;20625;-82
2022/02/20 04:01:42;;;;;;;29.97;4.47;;;;;;;;;;5054190;28;20192;-82
2022/02/20 04:04:11;;;;;;;23.70;3.83;;;;;;;;;;5053608;28;20633;-82
2022/02/20 04:06:39;;;;;;;20.03;3.53;;;;;;;;;;5056359;28;20258;-83
2022/02/20 04:09:07;;;;;;;25.13;3.93;;;;;;;;;;5055922;28;20230;-82
2022/02/20 04:11:34;;;;;;;26.43;4.23;;;;;;;;;;5053860;28;20199;-82
2022/02/20 04:14:01;;;;;;;22.23;4.07;;;;;;;;;;5053971;28;20255;-83
2022/02/20 04:16:28;;;;;;;22.87;4.27;;;;;;;;;;5053413;28;20292;-83
2022/02/20 04:18:56;;;;;;;26.17;4.43;;;;;;;;;;5053390;28;20231;-82
2022/02/20 04:21:23;;;;;;;26.93;4.30;;;;;;;;;;5053640;28;20228;-83
2022/02/20 04:23:53;;;;;;;23.03;4.07;;;;;;;;;;5053767;28;20244;-83
2022/02/20 04:26:20;;;;;;;21.60;4.57;;;;;;;;;;5053784;28;20226;-83
2022/02/20 04:28:47;;;;;;;16.57;3.30;;;;;;;;;;5053401;28;20297;-82
2022/02/20 04:31:14;;;;;;;18.97;4.00;;;;;;;;;;5053467;28;20640;-82
2022/02/20 04:33:41;;;;;;;24.27;3.87;;;;;;;;;;5053970;28;20295;-82
2022/02/20 04:36:10;;;;;;;22.37;3.67;;;;;;;;;;5053578;28;20638;-82
2022/02/20 04:38:37;;;;;;;24.37;3.80;;;;;;;;;;5053360;28;20671;-82
2022/02/20 04:41:05;;;;;;;24.87;3.83;;;;;;;;;;5056017;28;20237;-83
2022/02/20 04:43:33;;;;;;;21.43;3.67;;;;;;;;;;5053643;28;20719;-82
2022/02/20 04:46:00;;;;;;;20.27;3.70;;;;;;;;;;5053474;28;20232;-83
2022/02/20 04:48:27;;;;;;;25.77;4.00;;;;;;;;;;5053894;28;20231;-83
2022/02/20 04:50:55;;;;;;;26.60;5.20;;;;;;;;;;5053163;28;20235;-83
2022/02/20 04:53:22;;;;;;;31.07;7.40;;;;;;;;;;5053109;28;20236;-83
2022/02/20 04:55:49;;;;;;;31.30;8.07;;;;;;;;;;5051873;28;20293;-83
2022/02/20 04:58:18;;;;;;;35.20;7.63;;;;;;;;;;5053463;28;20223;-83
2022/02/20 05:00:45;;;;;;;38.40;7.03;;;;;;;;;;5052650;28;20199;-83
2022/02/20 05:03:12;;;;;;;34.37;7.83;;;;;;;;;;5052276;28;20227;-83
2022/02/20 05:05:39;;;;;;;35.53;7.63;;;;;;;;;;5052899;28;20227;-83
2022/02/20 05:08:07;;;;;;;33.57;7.37;;;;;;;;;;5052687;28;20195;-82
2022/02/20 05:10:34;;;;;;;33.53;6.97;;;;;;;;;;5052978;28;20238;-83
2022/02/20 05:13:01;;;;;;;36.67;7.73;;;;;;;;;;5053965;28;20231;-83
2022/02/20 05:15:30;;;;;;;27.80;6.80;;;;;;;;;;5054751;28;20268;-83
2022/02/20 05:17:57;;;;;;;38.27;7.20;;;;;;;;;;5052824;28;20429;-83
2022/02/20 05:20:24;;;;;;;35.03;6.23;;;;;;;;;;5052859;28;20953;-83
2022/02/20 05:22:51;;;;;;;28.37;5.17;;;;;;;;;;5052837;28;20235;-82
2022/02/20 05:25:18;;;;;;;26.90;5.13;;;;;;;;;;5052805;28;20228;-83
2022/02/20 05:27:46;;;;;;;31.70;5.57;;;;;;;;;;5051832;28;20258;-83
2022/02/20 05:30:16;;;;;;;29.40;5.27;;;;;;;;;;5051696;28;20227;-82
2022/02/20 05:32:44;;;;;;;33.73;6.40;;;;;;;;;;5051754;28;20204;-83
2022/02/20 05:35:12;;;;;;;36.03;6.80;;;;;;;;;;5051680;28;20294;-82
2022/02/20 05:37:43;;;;;;;40.17;7.10;;;;;;;;;;5052352;28;20200;-83
2022/02/20 05:40:11;;;;;;;35.57;6.33;;;;;;;;;;5052764;28;20236;-82
2022/02/20 05:42:38;;;;;;;34.00;6.13;;;;;;;;;;5051627;28;20270;-82
2022/02/20 05:45:06;;;;;;;25.20;4.60;;;;;;;;;;5051799;28;20285;-83
2022/02/20 05:47:34;;;;;;;30.60;4.70;;;;;;;;;;5053791;28;20712;-83
2022/02/20 05:50:02;;;;;;;30.10;3.97;;;;;;;;;;5052692;28;20270;-83
2022/02/20 05:52:30;;;;;;;27.93;3.80;;;;;;;;;;5051884;28;20996;-82
2022/02/20 05:54:57;;;;;;;32.83;4.83;;;;;;;;;;5052316;28;20221;-83
2022/02/20 05:57:24;;;;;;;28.20;3.70;;;;;;;;;;5051083;28;20568;-82
2022/02/20 05:59:51;;;;;;;28.10;3.90;;;;;;;;;;5052260;28;20283;-83
2022/02/20 06:02:18;;;;;;;26.97;4.27;;;;;;;;;;5051450;28;20674;-83
2022/02/20 06:04:46;;;;;;;23.87;3.30;;;;;;;;;;5051344;28;20644;-83
2022/02/20 06:07:14;;;;;;;26.63;3.87;;;;;;;;;;5052270;28;20311;-83
2022/02/20 06:09:41;;;;;;;27.27;3.37;;;;;;;;;;5051103;28;20274;-83
2022/02/20 06:12:09;;;;;;;30.30;3.80;;;;;;;;;;5051957;28;20234;-83
2022/02/20 06:14:36;;;;;;;23.60;3.43;;;;;;;;;;5051991;28;20199;-83
2022/02/20 06:17:04;;;;;;;23.83;3.13;;;;;;;;;;5051615;28;20245;-83
2022/02/20 06:19:31;;;;;;;19.47;3.67;;;;;;;;;;5052920;28;20298;-83
2022/02/20 06:21:58;;;;;;;26.53;3.70;;;;;;;;;;5052331;28;20192;-82
2022/02/20 06:24:27;;;;;;;21.63;3.43;;;;;;;;;;5051967;28;20701;-82
2022/02/20 06:26:54;;;;;;;27.87;3.63;;;;;;;;;;5050964;28;20262;-83
2022/02/20 06:29:21;;;;;;;24.27;3.70;;;;;;;;;;5051460;28;20208;-82
2022/02/20 06:31:48;;;;;;;29.50;3.93;;;;;;;;;;5051406;28;20235;-83
2022/02/20 06:34:16;;;;;;;24.27;3.80;;;;;;;;;;5051443;28;20207;-83
2022/02/20 06:36:43;;;;;;;30.43;3.87;;;;;;;;;;5051161;28;20672;-83
2022/02/20 06:39:10;;;;;;;28.03;3.67;;;;;;;;;;5051473;28;20203;-83
2022/02/20 06:41:39;;;;;;;22.50;3.73;;;;;;;;;;5051408;28;20206;-82
2022/02/20 06:44:07;;;;;;;28.90;4.07;;;;;;;;;;5051325;28;20294;-83
2022/02/20 06:46:35;;;;;;;23.10;4.20;;;;;;;;;;5051257;28;20319;-83
2022/02/20 06:49:02;;;;;;;28.10;3.77;;;;;;;;;;5051360;28;20234;-83
2022/02/20 06:51:29;;;;;;;27.07;3.60;;;;;;;;;;5051415;28;20211;-83
2022/02/20 06:53:56;;;;;;;31.63;3.97;;;;;;;;;;5052139;28;20295;-83
2022/02/20 06:56:24;;;;;;;29.70;3.90;;;;;;;;;;5051777;28;20234;-83
2022/02/20 06:58:52;;;;;;;20.63;3.63;;;;;;;;;;5055296;28;20199;-83
2022/02/20 07:01:19;;;;;;;23.50;3.67;;;;;;;;;;5054995;28;20198;-83
2022/02/20 07:03:46;;;;;;;20.83;3.40;;;;;;;;;;5055659;28;20227;-83
2022/02/20 07:06:14;;;;;;;23.73;3.63;;;;;;;;;;5054860;28;20626;-82
2022/02/20 07:08:42;;;;;;;24.63;2.87;;;;;;;;;;5054913;28;20203;-83
2022/02/20 07:11:09;;;;;;;21.20;3.00;;;;;;;;;;5054678;28;20233;-82
2022/02/20 07:13:36;;;;;;;29.17;4.40;;;;;;;;;;5055170;28;20206;-83
2022/02/20 07:16:05;;;;;;;28.23;3.57;;;;;;;;;;5055730;28;20299;-83
2022/02/20 07:18:32;;;;;;;24.33;3.83;;;;;;;;;;5055286;28;20227;-82
2022/02/20 07:20:59;;;;;;;19.00;2.83;;;;;;;;;;5055143;28;20241;-82
2022/02/20 07:23:26;;;;;;;25.03;3.50;;;;;;;;;;5054111;28;20723;-82
2022/02/20 07:25:53;;;;;;;22.90;3.47;;;;;;;;;;5055462;28;20238;-83
2022/02/20 07:28:22;;;;;;;18.63;3.47;;;;;;;;;;5054470;28;20313;-82
2022/02/20 07:30:49;;;;;;;25.80;4.43;;;;;;;;;;5054742;28;20619;-82
2022/02/20 07:33:18;;;;;;;19.30;3.43;;;;;;;;;;5054537;28;20235;-82
2022/02/20 07:35:45;;;;;;;23.87;3.70;;;;;;;;;;5054848;28;20270;-83
2022/02/20 07:38:12;;;;;;;21.90;3.53;;;;;;;;;;5054467;28;20242;-82
2022/02/20 07:40:40;;;;;;;20.87;4.00;;;;;;;;;;5054688;28;20246;-82
2022/02/20 07:43:07;;;;;;;23.40;4.10;;;;;;;;;;5055070;28;20321;-82
2022/02/20 07:45:34;;;;;;;23.70;3.53;;;;;;;;;;5054377;28;20234;-82
2022/02/20 07:48:03;;;;;;;22.40;3.27;;;;;;;;;;5055004;28;20263;-82
2022/02/20 07:50:32;;;;;;;19.23;3.33;;;;;;;;;;5054619;28;20214;-82
2022/02/20 07:53:01;;;;;;;21.47;3.87;;;;;;;;;;5053777;28;20238;-82
2022/02/20 07:55:28;;;;;;;24.83;3.87;;;;;;;;;;5054784;28;20716;-83
2022/02/20 07:57:56;;;;;;;22.83;3.87;;;;;;;;;;5054815;28;20283;-81
2022/02/20 08:00:27;;;;;;;23.87;3.93;;;;;;;;;;5054913;28;20226;-80
2022/02/20 08:02:55;;;;;;;22.23;4.10;;;;;;;;;;5053679;28;20286;-81
2022/02/20 08:05:22;;;;;;;22.03;4.33;;;;;;;;;;5054663;28;20331;-81
2022/02/20 08:07:56;;;;;;;25.53;4.73;;;;;;;;;;5050865;28;20223;-81
2022/02/20 08:10:24;;;;;;;25.57;4.30;;;;;;;;;;5046580;28;20235;-81
2022/02/20 08:12:51;;;;;;;23.47;4.00;;;;;;;;;;5052600;28;20210;-81
2022/02/20 08:15:19;;;;;;;23.10;4.13;;;;;;;;;;5053392;28;20199;-81
2022/02/20 08:17:47;;;;;;;25.00;5.03;;;;;;;;;;5052600;28;20227;-81
2022/02/20 08:20:15;;;;;;;24.57;4.23;;;;;;;;;;5053693;28;20207;-81
2022/02/20 08:22:42;;;;;;;26.80;4.63;;;;;;;;;;5053623;28;20249;-82
2022/02/20 08:25:12;;;;;;;23.07;4.17;;;;;;;;;;5052885;28;20243;-82
2022/02/20 08:27:40;;;;;;;24.70;4.40;;;;;;;;;;5053990;28;20220;-82
2022/02/20 08:30:09;;;;;;;24.80;4.57;;;;;;;;;;5052312;28;20672;-82
2022/02/20 08:32:37;;;;;;;26.80;4.70;;;;;;;;;;5052926;28;20230;-81
2022/02/20 08:35:08;;;;;;;22.60;4.10;;;;;;;;;;5052805;28;20283;-81
2022/02/20 08:37:35;;;;;;;27.33;3.97;;;;;;;;;;5053018;28;20198;-81
2022/02/20 08:40:02;;;;;;;24.87;4.53;;;;;;;;;;5052982;28;20391;-81
2022/02/20 08:42:31;;;;;;;20.93;4.03;;;;;;;;;;5053186;28;20276;-80
2022/02/20 08:44:58;;;;;;;27.87;5.17;;;;;;;;;;5053739;28;20702;-82
2022/02/20 08:47:26;;;;;;;27.87;4.83;;;;;;;;;;5054738;28;20220;-81
2022/02/20 08:50:00;;;;;;;25.93;5.50;;;;;;;;;;5054043;28;20282;-86
2022/02/20 08:52:28;;;;;;;24.47;4.77;;;;;;;;;;5053160;28;20199;-86
2022/02/20 08:54:55;;;;;;;24.20;4.23;;;;;;;;;;5052935;28;20199;-87
2022/02/20 08:57:24;;;;;;;29.53;5.20;;;;;;;;;;5051524;28;20211;-86
2022/02/20 09:00:06;;;;;;;26.87;4.93;;;;;;;;;;5043705;28;20232;-86
2022/02/20 09:02:35;;;;;;;26.40;4.77;;;;;;;;;;5045693;28;20235;-86
2022/02/20 09:05:02;;;;;;;24.93;4.67;;;;;;;;;;5054119;28;20208;-85
2022/02/20 09:07:29;;;;;;;23.40;4.33;;;;;;;;;;5051996;28;20247;-85
2022/02/20 09:09:57;;;;;;;19.57;4.27;;;;;;;;;;5052970;28;20292;-85
2022/02/20 09:12:24;;;;;;;25.53;4.47;;;;;;;;;;5054342;28;20290;-87
2022/02/20 09:14:51;;;;;;;20.30;3.80;;;;;;;;;;5053770;28;20291;-85
2022/02/20 09:17:19;;;;;;;24.90;4.33;;;;;;;;;;5054637;28;20232;-85
2022/02/20 09:19:47;;;;;;;22.17;4.77;;;;;;;;;;5053050;28;20281;-85
2022/02/20 09:22:15;;;;;;;17.23;4.37;;;;;;;;;;5053803;28;20203;-86
2022/02/20 09:24:42;;;;;;;21.27;4.50;;;;;;;;;;5053449;28;20616;-87
2022/02/20 09:27:09;;;;;;;22.20;5.17;;;;;;;;;;5054591;28;20215;-87
2022/02/20 09:29:37;;;;;;;22.80;4.53;;;;;;;;;;5055205;28;20273;-87
2022/02/20 09:32:05;;;;;;;24.70;5.33;;;;;;;;;;5054895;28;20200;-85
2022/02/20 09:34:32;;;;;;;20.57;4.33;;;;;;;;;;5058884;28;20439;-86
2022/02/20 09:37:01;;;;;;;24.53;5.23;;;;;;;;;;5057246;28;20191;-86
2022/02/20 09:39:29;;;;;;;24.38;5.15;;;;;;;;;;5054122;28;20623;-87
2022/02/20 09:41:57;;;;;;;23.03;5.67;;;;;;;;;;5054041;28;20227;-87
2022/02/20 09:44:27;;;;;;;24.83;5.60;;;;;;;;;;5054146;28;20200;-86
2022/02/20 09:46:54;;;;;;;25.40;4.93;;;;;;;;;;5033734;28;20201;-87
2022/02/20 09:49:26;;;;;;;23.37;5.13;;;;;;;;;;5033233;28;20204;-88
2022/02/20 09:51:54;;;;;;;28.37;5.43;;;;;;;;;;5030833;28;20204;-87
2022/02/20 09:54:22;;;;;;;23.50;4.30;;;;;;;;;;5012790;28;20212;-86
2022/02/20 09:56:50;;;;;;;25.47;4.87;;;;;;;;;;5032409;28;20212;-85
2022/02/20 09:59:17;;;;;;;22.17;4.53;;;;;;;;;;5031331;28;20221;-85
2022/02/20 10:02:11;;;;;;;19.93;4.00;;;;;;;;;;5031296;28;20196;-86
2022/02/20 10:04:42;;;;;;;26.73;5.27;;;;;;;;;;4955277;29;20204;-86
2022/02/20 10:07:25;;;;;;;24.83;4.73;;;;;;;;;;4955289;29;20364;-85
2022/02/20 10:09:54;;;;;;;22.10;4.67;;;;;;;;;;4950055;28;20203;-87
2022/02/20 10:12:21;;;;;;;26.83;5.20;;;;;;;;;;4950157;28;20278;-84
2022/02/20 10:14:49;;;;;;;26.23;5.50;;;;;;;;;;4951394;29;20254;-86
2022/02/20 10:17:17;;;;;;;25.60;4.70;;;;;;;;;;4941990;29;20203;-89
2022/02/20 10:19:55;;;;;;;29.43;5.50;;;;;;;;;;4941423;29;20203;-90
2022/02/20 10:22:26;;;;;;;24.60;5.20;;;;;;;;;;4949329;29;20212;-86
2022/02/20 10:25:06;;;;;;;17.83;4.30;;;;;;;;;;4951011;29;20207;-86
2022/02/20 10:27:33;;;;;;;24.90;6.00;;;;;;;;;;4950695;28;20254;-86
2022/02/20 10:30:14;;;;;;;25.23;5.07;;;;;;;;;;4951205;28;20243;-85
2022/02/20 10:32:41;;;;;;;21.17;4.90;;;;;;;;;;4949548;29;20298;-87
2022/02/20 10:35:10;;;;;;;19.57;4.23;;;;;;;;;;4952273;29;20234;-88
2022/02/20 10:37:37;;;;;;;24.63;5.30;;;;;;;;;;4954999;29;20235;-89
2022/02/20 10:40:23;;;;;;;25.53;4.93;;;;;;;;;;4979896;28;20213;-88
2022/02/20 10:42:50;;;;;;;29.30;4.83;;;;;;;;;;5029201;28;20220;-88
2022/02/20 10:45:23;;;;;;;22.73;4.30;;;;;;;;;;5037445;28;20231;-86
2022/02/20 10:47:51;;;;;;;20.30;4.33;;;;;;;;;;5050445;28;20251;-86
2022/02/20 10:50:19;;;;;;;17.97;3.90;;;;;;;;;;5050420;28;20231;-88
2022/02/20 10:52:47;;;;;;;25.37;4.70;;;;;;;;;;5045133;28;20224;-87
2022/02/20 10:55:16;;;;;;;21.63;4.57;;;;;;;;;;5051063;28;20235;-88
2022/02/20 10:57:45;;;;;;;28.43;4.80;;;;;;;;;;5051516;28;20218;-91
2022/02/20 11:00:13;;;;;;;18.23;4.70;;;;;;;;;;5048523;28;20733;-91
2022/02/20 11:02:41;;;;;;;26.43;5.13;;;;;;;;;;5054129;28;20242;-92
2022/02/20 11:05:09;;;;;;;25.57;4.67;;;;;;;;;;5053164;28;20195;-91
2022/02/20 11:07:38;;;;;;;25.20;5.10;;;;;;;;;;5054912;28;20199;-91
2022/02/20 11:10:06;;;;;;;23.87;4.97;;;;;;;;;;5052832;28;20207;-91
2022/02/20 11:12:36;;;;;;;21.53;5.97;;;;;;;;;;5053116;28;20223;-93
2022/02/20 11:15:04;;;;;;;22.00;4.53;;;;;;;;;;5054066;28;20204;-92
2022/02/20 11:17:34;;;;;;;25.67;4.90;;;;;;;;;;5068955;28;20203;-90
2022/02/20 11:20:02;;;;;;;21.40;4.50;;;;;;;;;;5049972;28;20199;-92
2022/02/20 11:22:38;;;;;;;26.33;5.00;;;;;;;;;;5041195;28;20211;-91
2022/02/20 11:25:07;;;;;;;21.67;4.97;;;;;;;;;;5056951;28;20283;-91
2022/02/20 11:27:36;;;;;;;27.83;5.33;;;;;;;;;;5057233;28;20277;-91
2022/02/20 11:30:04;;;;;;;16.53;4.27;;;;;;;;;;5056349;28;20207;-92
2022/02/20 11:32:33;;;;;;;23.60;4.30;;;;;;;;;;5057471;28;20771;-92
2022/02/20 11:35:00;;;;;;;22.97;5.33;;;;;;;;;;5064903;28;20192;-91
2022/02/20 11:37:42;;;;;;;21.63;4.40;;;;;;;;;;5062558;28;20231;-90
2022/02/20 11:40:14;;;;;;;22.17;4.87;;;;;;;;;;5063913;28;20206;-90
2022/02/20 11:43:05;;;;;;;26.00;4.93;;;;;;;;;;5065873;28;20244;-91
2022/02/20 11:45:35;;;;;;;19.77;4.23;;;;;;;;;;5050583;28;20307;-92
2022/02/20 11:48:02;;;;;;;24.80;4.87;;;;;;;;;;5058384;28;20231;-91
2022/02/20 11:50:36;;;;;;;21.57;4.63;;;;;;;;;;5058243;28;20234;-92
2022/02/20 11:53:05;;;;;;;24.97;5.73;;;;;;;;;;5056421;28;20619;-93
2022/02/20 11:55:34;;;;;;;20.63;4.93;;;;;;;;;;5059811;28;20253;-91
2022/02/20 11:58:23;;;;;;;21.27;4.30;;;;;;;;;;5037271;28;20204;-92
2022/02/20 12:01:05;;;;;;;21.77;4.37;;;;;;;;;;5053554;28;20207;-92
2022/02/20 12:03:34;;;;;;;25.77;4.83;;;;;;;;;;5056719;28;20219;-92
2022/02/20 12:06:20;;;;;;;24.10;5.40;;;;;;;;;;5061109;28;20203;-91
2022/02/20 12:08:51;;;;;;;22.77;5.40;;;;;;;;;;5064057;28;20219;-91
2022/02/20 12:11:19;;;;;;;23.73;5.17;;;;;;;;;;5066942;28;20200;-93
2022/02/20 12:13:47;;;;;;;19.97;4.13;;;;;;;;;;5062917;28;20196;-92
2022/02/20 12:16:28;;;;;;;23.43;4.67;;;;;;;;;;5066676;28;20207;-93
2022/02/20 12:19:07;;;;;;;23.77;4.30;;;;;;;;;;5062877;28;20709;-93
2022/02/20 12:21:35;;;;;;;18.77;4.67;;;;;;;;;;5059721;28;20199;-93
2022/02/20 12:24:16;;;;;;;23.93;4.37;;;;;;;;;;5059425;28;20203;-94
2022/02/20 12:26:46;;;;;;;19.47;4.63;;;;;;;;;;5060545;28;20625;-93
2022/02/20 12:29:15;;;;;;;21.30;4.50;;;;;;;;;;5058893;28;20219;-91
2022/02/20 12:32:00;;;;;;;23.23;4.83;;;;;;;;;;5055968;28;20249;-88
2022/02/20 12:34:45;;;;;;;24.47;4.43;;;;;;;;;;5054498;28;20203;-90
2022/02/20 12:37:15;;;;;;;24.63;5.00;;;;;;;;;;5053371;28;20207;-91
2022/02/20 12:39:42;;;;;;;19.50;4.63;;;;;;;;;;5057343;28;20231;-91
2022/02/20 12:42:10;;;;;;;21.07;4.87;;;;;;;;;;5056042;28;20228;-89
2022/02/20 12:44:39;;;;;;;29.20;4.90;;;;;;;;;;5054837;28;20234;-90
2022/02/20 12:47:07;;;;;;;23.33;4.73;;;;;;;;;;5055192;28;20233;-90
2022/02/20 12:49:38;;;;;;;19.70;5.03;;;;;;;;;;5046766;28;20219;-90
2022/02/20 12:52:06;;;;;;;24.67;4.83;;;;;;;;;;5053671;28;20195;-90
2022/02/20 12:54:35;;;;;;;23.97;5.27;;;;;;;;;;5054551;28;20261;-90
2022/02/20 12:57:03;;;;;;;26.73;5.70;;;;;;;;;;5054015;28;20204;-92
2022/02/20 12:59:30;;;;;;;24.27;5.03;;;;;;;;;;5053391;28;20208;-89
2022/02/20 13:02:01;;;;;;;22.27;4.60;;;;;;;;;;5054067;28;20624;-90
2022/02/20 13:04:29;;;;;;;26.40;4.50;;;;;;;;;;5054024;28;20234;-89
2022/02/20 13:07:03;;;;;;;24.27;5.03;;;;;;;;;;5054136;28;20698;-91
2022/02/20 13:09:31;;;;;;;27.37;5.90;;;;;;;;;;5053839;28;20254;-87
2022/02/20 13:12:13;;;;;;;26.53;5.17;;;;;;;;;;5058693;28;20226;-89
2022/02/20 13:14:57;;;;;;;25.27;5.63;;;;;;;;;;5050239;28;20204;-89
2022/02/20 13:17:39;;;;;;;27.00;4.90;;;;;;;;;;5053955;28;20230;-90
2022/02/20 13:20:26;;;;;;;28.17;5.07;;;;;;;;;;5050236;28;20270;-89
2022/02/20 13:22:53;;;;;;;25.37;4.63;;;;;;;;;;5053091;28;20295;-89
2022/02/20 13:25:20;;;;;;;19.10;4.73;;;;;;;;;;5053902;28;20207;-91
2022/02/20 13:27:48;;;;;;;28.50;5.53;;;;;;;;;;5053987;28;20207;-89
2022/02/20 13:30:28;;;;;;;26.40;5.23;;;;;;;;;;5054058;28;20231;-91
2022/02/20 13:32:55;;;;;;;26.83;5.50;;;;;;;;;;5045691;28;20195;-91
2022/02/20 13:35:32;;;;;;;23.00;5.90;;;;;;;;;;5055310;28;20204;-90
2022/02/20 13:37:59;;;;;;;26.73;5.43;;;;;;;;;;5054301;28;20223;-91
2022/02/20 13:40:28;;;;;;;24.40;6.07;;;;;;;;;;5056019;28;20652;-91
2022/02/20 13:43:03;;;;;;;31.80;6.00;;;;;;;;;;5058894;28;20775;-90
2022/02/20 13:45:31;;;;;;;26.13;5.77;;;;;;;;;;5054274;28;20601;-90
2022/02/20 13:47:59;;;;;;;29.30;5.47;;;;;;;;;;5055753;28;20207;-91
2022/02/20 13:50:28;;;;;;;32.07;5.50;;;;;;;;;;5053401;28;20219;-89
2022/02/20 13:52:55;;;;;;;25.33;5.40;;;;;;;;;;5052093;28;20572;-87
2022/02/20 13:55:25;;;;;;;24.77;5.47;;;;;;;;;;5051766;28;20196;-87
2022/02/20 13:57:54;;;;;;;21.00;5.00;;;;;;;;;;5052803;28;20304;-88
2022/02/20 14:00:22;;;;;;;26.50;5.47;;;;;;;;;;5052152;28;20195;-88
2022/02/20 14:02:51;;;;;;;27.83;5.40;;;;;;;;;;5052647;28;20192;-89
2022/02/20 14:05:23;;;;;;;25.77;5.60;;;;;;;;;;5051501;28;20210;-88
2022/02/20 14:07:50;;;;;;;23.40;5.13;;;;;;;;;;5053152;28;20630;-88
2022/02/20 14:10:17;;;;;;;21.10;5.47;;;;;;;;;;5053175;28;20250;-89
2022/02/20 14:12:45;;;;;;;25.53;5.00;;;;;;;;;;5057048;28;20238;-89
2022/02/20 14:15:14;;;;;;;18.73;5.50;;;;;;;;;;5053161;28;20284;-88
2022/02/20 14:17:48;;;;;;;25.80;4.93;;;;;;;;;;5051617;28;20203;-90
2022/02/20 14:20:17;;;;;;;24.73;4.90;;;;;;;;;;5051029;28;20239;-87
2022/02/20 14:22:45;;;;;;;26.67;5.13;;;;;;;;;;5051570;28;20227;-88
2022/02/20 14:25:14;;;;;;;25.43;5.10;;;;;;;;;;5051548;28;20253;-87
2022/02/20 14:27:43;;;;;;;28.17;5.00;;;;;;;;;;5052199;28;20233;-88
2022/02/20 14:30:11;;;;;;;24.27;5.37;;;;;;;;;;5051945;28;20259;-89
2022/02/20 14:32:38;;;;;;;26.63;5.93;;;;;;;;;;5050611;28;20265;-87
2022/02/20 14:35:21;;;;;;;26.83;5.87;;;;;;;;;;5050707;28;20234;-84
2022/02/20 14:37:56;;;;;;;21.97;5.40;;;;;;;;;;5051107;28;20608;-85
2022/02/20 14:40:23;;;;;;;27.47;5.93;;;;;;;;;;5050600;28;20287;-84